Time;durP1;ratioP1;P1;durP2;ratioP2;P2;SDS_P1;SDS_P2;PMS_P1;PMS_P2;Temp;Humidity;BMP_temperature;BMP_pressure;BME280_temperature;BME280_humidity;BME280_pressure;Samples;Min_cycle;Max_cycle;Signal;HPM_P1;HPM_P2
2022/02/22 00:00:56;;;;;;;15.55;10.03;;;18.20;92.80;;;;;;1870025;76;21143;-86
2022/02/22 00:03:27;;;;;;;14.63;9.03;;;18.20;92.80;;;;;;1837513;77;21068;-86
2022/02/22 00:06:02;;;;;;;16.00;10.68;;;18.20;92.90;;;;;;1851214;77;21708;-87
2022/02/22 00:08:30;;;;;;;17.02;11.00;;;18.30;92.90;;;;;;1832589;78;21197;-85
2022/02/22 00:11:05;;;;;;;17.07;11.43;;;18.30;93.00;;;;;;1837797;76;21642;-85
2022/02/22 00:13:35;;;;;;;15.13;11.00;;;18.30;93.10;;;;;;1925630;73;21142;-84
2022/02/22 00:16:06;;;;;;;17.62;10.65;;;18.30;93.00;;;;;;1918017;74;21205;-79
2022/02/22 00:18:37;;;;;;;23.47;13.58;;;18.40;93.00;;;;;;1928190;74;21204;-80
2022/02/22 00:21:08;;;;;;;15.85;10.23;;;18.40;93.00;;;;;;1922323;74;22044;-80
2022/02/22 00:23:39;;;;;;;13.08;9.15;;;18.40;93.00;;;;;;1890290;75;21099;-80
2022/02/22 00:26:09;;;;;;;13.93;8.75;;;18.50;92.70;;;;;;1887006;76;21131;-81
2022/02/22 00:28:40;;;;;;;17.27;9.10;;;18.60;92.40;;;;;;1911749;73;21166;-80
2022/02/22 00:31:12;;;;;;;21.20;10.72;;;18.60;92.20;;;;;;1922466;74;21205;-80
2022/02/22 00:33:44;;;;;;;12.50;9.10;;;18.70;92.00;;;;;;1885595;76;21112;-81
2022/02/22 00:36:15;;;;;;;13.72;9.08;;;18.70;91.90;;;;;;1899167;74;21833;-80
2022/02/22 00:38:49;;;;;;;16.30;9.93;;;18.70;91.60;;;;;;1909206;73;21531;-80
2022/02/22 00:41:18;;;;;;;11.22;8.25;;;18.80;91.60;;;;;;1926371;73;21129;-82
2022/02/22 00:43:49;;;;;;;14.25;7.92;;;18.80;91.50;;;;;;1918256;74;21637;-80
2022/02/22 00:46:20;;;;;;;8.78;6.25;;;18.80;91.10;;;;;;1918484;74;21126;-80
2022/02/22 00:48:53;;;;;;;11.97;7.58;;;18.80;91.00;;;;;;1903461;74;21115;-80
2022/02/22 00:51:23;;;;;;;12.15;6.87;;;18.80;91.20;;;;;;1876945;76;22077;-81
2022/02/22 00:53:55;;;;;;;10.53;7.20;;;18.80;91.20;;;;;;1923036;74;21193;-80
2022/02/22 00:56:25;;;;;;;10.30;7.12;;;18.90;90.90;;;;;;1911910;74;21127;-80
2022/02/22 00:58:56;;;;;;;9.60;6.12;;;18.90;90.70;;;;;;1918141;74;21698;-80
2022/02/22 01:01:27;;;;;;;13.68;6.97;;;18.90;90.70;;;;;;1866294;75;21135;-80
2022/02/22 01:03:58;;;;;;;11.55;6.83;;;19.00;90.50;;;;;;1943339;73;21421;-80
2022/02/22 01:06:28;;;;;;;11.68;6.90;;;19.00;90.40;;;;;;1910008;74;21103;-81
2022/02/22 01:08:59;;;;;;;8.80;5.87;;;19.00;90.20;;;;;;1856257;76;21226;-80
2022/02/22 01:11:31;;;;;;;13.25;5.55;;;19.00;89.60;;;;;;1931577;74;21605;-81
2022/02/22 01:14:02;;;;;;;10.08;5.92;;;19.00;89.50;;;;;;1927299;74;21735;-81
2022/02/22 01:16:33;;;;;;;9.60;5.17;;;19.00;89.80;;;;;;1926339;74;21075;-80
2022/02/22 01:19:04;;;;;;;8.43;5.35;;;19.10;90.00;;;;;;1917870;74;21523;-81
2022/02/22 01:21:36;;;;;;;9.03;5.95;;;19.20;89.10;;;;;;1922697;74;21177;-80
2022/02/22 01:24:08;;;;;;;11.50;6.45;;;19.20;89.00;;;;;;1926077;74;21137;-81
2022/02/22 01:26:39;;;;;;;9.85;6.30;;;19.20;88.30;;;;;;1927407;74;21569;-81
2022/02/22 01:29:09;;;;;;;10.32;5.97;;;19.20;88.40;;;;;;1922169;74;21597;-81
2022/02/22 01:31:40;;;;;;;8.70;5.58;;;19.20;88.80;;;;;;1920726;74;21084;-81
2022/02/22 01:34:12;;;;;;;9.78;5.72;;;19.30;89.50;;;;;;1932752;74;21642;-81
2022/02/22 01:36:45;;;;;;;15.05;5.08;;;19.40;87.90;;;;;;1937244;74;21127;-81
2022/02/22 01:39:15;;;;;;;14.63;7.05;;;19.40;88.10;;;;;;1932386;72;21177;-81
2022/02/22 01:41:46;;;;;;;8.65;5.28;;;19.50;88.10;;;;;;1946024;72;21123;-81
2022/02/22 01:44:19;;;;;;;10.23;5.78;;;19.60;88.00;;;;;;1921340;74;21267;-71
2022/02/22 01:46:52;;;;;;;10.40;6.30;;;19.70;89.20;;;;;;1933796;72;21473;-70
2022/02/22 01:49:23;;;;;;;15.43;6.10;;;19.70;88.50;;;;;;1924534;74;21097;-69
2022/02/22 01:51:55;;;;;;;53.05;8.88;;;19.80;87.80;;;;;;1910960;74;21135;-71
2022/02/22 01:54:27;;;;;;;9.43;5.25;;;19.80;87.50;;;;;;1907583;73;21272;-72
2022/02/22 01:56:57;;;;;;;9.55;6.10;;;19.90;86.30;;;;;;1922169;74;21063;-72
2022/02/22 01:59:28;;;;;;;9.20;6.08;;;19.90;86.50;;;;;;1925590;73;21103;-71
2022/02/22 02:01:59;;;;;;;10.93;5.67;;;20.00;86.70;;;;;;1914845;73;21064;-71
2022/02/22 02:04:30;;;;;;;9.63;5.50;;;20.00;86.10;;;;;;1916463;73;21208;-71
2022/02/22 02:07:01;;;;;;;10.00;5.47;;;20.10;86.00;;;;;;1920851;74;21161;-71
2022/02/22 02:09:32;;;;;;;7.42;5.33;;;20.10;85.80;;;;;;1932930;73;21056;-72
2022/02/22 02:12:03;;;;;;;9.05;5.17;;;20.10;86.00;;;;;;1931500;73;21087;-72
2022/02/22 02:14:34;;;;;;;8.55;4.87;;;20.20;85.70;;;;;;1933511;73;21095;-72
2022/02/22 02:17:05;;;;;;;10.93;5.47;;;20.20;86.70;;;;;;1885611;75;21151;-71
2022/02/22 02:19:36;;;;;;;9.55;4.92;;;20.30;85.80;;;;;;1921767;73;21135;-72
2022/02/22 02:22:07;;;;;;;6.78;4.70;;;20.30;85.50;;;;;;1930511;73;21186;-72
2022/02/22 02:24:38;;;;;;;15.32;13.72;;;20.40;85.20;;;;;;1933406;73;21165;-72
2022/02/22 02:27:09;;;;;;;8.58;4.50;;;20.50;85.40;;;;;;1889278;74;21511;-71
2022/02/22 02:29:44;;;;;;;7.62;4.72;;;20.50;84.50;;;;;;1925200;73;21630;-71
2022/02/22 02:32:12;;;;;;;6.53;4.37;;;20.60;84.70;;;;;;1927507;73;21095;-72
2022/02/22 02:34:43;;;;;;;7.00;4.00;;;20.60;83.90;;;;;;1897474;75;21196;-72
2022/02/22 02:37:14;;;;;;;7.67;4.78;;;20.70;84.10;;;;;;1918396;73;21167;-73
2022/02/22 02:39:45;;;;;;;9.80;4.75;;;20.70;82.90;;;;;;1927998;73;21087;-71
2022/02/22 02:42:17;;;;;;;8.23;4.30;;;20.80;83.60;;;;;;1883852;74;21221;-70
2022/02/22 02:44:50;;;;;;;8.13;3.92;;;20.80;83.40;;;;;;1925998;73;21130;-72
2022/02/22 02:47:21;;;;;;;7.17;4.67;;;20.90;83.50;;;;;;1931809;74;21131;-71
2022/02/22 02:49:52;;;;;;;6.95;4.55;;;21.00;82.80;;;;;;1865631;75;21189;-72
2022/02/22 02:52:23;;;;;;;7.05;4.90;;;21.10;83.40;;;;;;1924021;73;21119;-72
2022/02/22 02:54:54;;;;;;;7.25;5.08;;;21.20;84.10;;;;;;1933047;73;21127;-71
2022/02/22 02:57:26;;;;;;;9.00;5.50;;;21.20;84.10;;;;;;1930974;73;21219;-72
2022/02/22 02:59:57;;;;;;;8.73;5.25;;;21.30;83.00;;;;;;1929202;74;21137;-72
2022/02/22 03:02:28;;;;;;;8.00;4.58;;;21.40;82.70;;;;;;1881680;74;21143;-72
2022/02/22 03:04:59;;;;;;;8.80;5.50;;;21.50;82.20;;;;;;1916296;73;21656;-72
2022/02/22 03:07:31;;;;;;;7.60;4.75;;;21.50;81.40;;;;;;1929023;73;21244;-72
2022/02/22 03:10:02;;;;;;;9.25;5.20;;;21.60;82.30;;;;;;1847123;75;21123;-72
2022/02/22 03:12:32;;;;;;;6.53;4.55;;;21.60;82.30;;;;;;1899737;73;21072;-72
2022/02/22 03:15:03;;;;;;;8.85;4.80;;;21.60;81.80;;;;;;1901562;75;21142;-74
2022/02/22 03:17:35;;;;;;;6.50;4.10;;;21.70;81.30;;;;;;1898931;73;21124;-72
2022/02/22 03:20:07;;;;;;;7.83;4.20;;;21.80;80.80;;;;;;1894459;73;21080;-74
2022/02/22 03:22:43;;;;;;;8.25;4.70;;;21.90;80.80;;;;;;1904308;73;21579;-73
2022/02/22 03:25:11;;;;;;;8.60;4.00;;;21.90;80.70;;;;;;1907250;73;21399;-73
2022/02/22 03:27:42;;;;;;;7.62;3.90;;;22.00;79.80;;;;;;1899761;73;21072;-73
2022/02/22 03:30:13;;;;;;;5.42;3.10;;;22.10;79.60;;;;;;1895843;73;21194;-73
2022/02/22 03:32:44;;;;;;;5.90;3.65;;;22.20;79.50;;;;;;1908259;75;21679;-73
2022/02/22 03:35:15;;;;;;;6.33;3.67;;;22.20;79.40;;;;;;1903184;75;21873;-73
2022/02/22 03:37:46;;;;;;;7.20;3.92;;;22.20;78.10;;;;;;1898837;73;21234;-73
2022/02/22 03:40:17;;;;;;;5.67;3.80;;;22.30;78.40;;;;;;1909572;74;21544;-75
2022/02/22 03:42:47;;;;;;;8.00;4.08;;;22.30;78.00;;;;;;1899925;75;21084;-72
2022/02/22 03:45:18;;;;;;;6.60;4.65;;;22.30;78.00;;;;;;1903724;73;21181;-73
2022/02/22 03:47:49;;;;;;;7.42;4.62;;;22.20;78.50;;;;;;1900828;75;21332;-74
2022/02/22 03:50:20;;;;;;;7.80;5.30;;;22.30;79.10;;;;;;1902959;75;21115;-73
2022/02/22 03:52:52;;;;;;;10.05;4.45;;;22.40;79.30;;;;;;1901194;75;21151;-73
2022/02/22 03:55:23;;;;;;;6.28;4.10;;;22.50;80.00;;;;;;1902614;75;21117;-72
2022/02/22 03:57:54;;;;;;;7.67;4.30;;;22.60;78.60;;;;;;1917929;73;21151;-73
2022/02/22 04:00:26;;;;;;;7.00;4.65;;;22.60;77.40;;;;;;1916211;75;21127;-73
2022/02/22 04:02:59;;;;;;;7.55;5.03;;;22.80;78.00;;;;;;1913391;73;21578;-74
2022/02/22 04:05:30;;;;;;;9.05;4.95;;;22.90;76.90;;;;;;1901982;73;21222;-71
2022/02/22 04:08:02;;;;;;;8.18;4.58;;;22.90;77.70;;;;;;1914174;75;21185;-73
2022/02/22 04:10:34;;;;;;;7.53;4.55;;;22.90;77.80;;;;;;1900205;75;21189;-72
2022/02/22 04:13:05;;;;;;;9.70;4.58;;;23.00;77.70;;;;;;1913797;73;21147;-73
2022/02/22 04:15:36;;;;;;;6.35;4.20;;;23.20;76.70;;;;;;1916397;75;21136;-72
2022/02/22 04:18:07;;;;;;;7.50;4.30;;;23.20;76.70;;;;;;1913296;75;21602;-71
2022/02/22 04:20:37;;;;;;;5.62;3.85;;;23.40;76.50;;;;;;1915812;75;21692;-73
2022/02/22 04:23:08;;;;;;;7.45;4.70;;;23.50;76.10;;;;;;1898077;73;21072;-72
2022/02/22 04:25:39;;;;;;;8.60;4.70;;;23.60;75.40;;;;;;1904924;73;21440;-72
2022/02/22 04:28:10;;;;;;;7.92;4.85;;;23.70;75.40;;;;;;1907691;75;21100;-72
2022/02/22 04:30:41;;;;;;;8.43;5.25;;;23.80;75.40;;;;;;1898549;73;21067;-74
2022/02/22 04:33:12;;;;;;;7.92;5.22;;;23.90;75.00;;;;;;1914099;75;21708;-73
2022/02/22 04:35:43;;;;;;;8.48;5.35;;;24.00;73.40;;;;;;1907888;75;21162;-72
2022/02/22 04:38:14;;;;;;;9.50;5.53;;;24.00;73.40;;;;;;1911473;75;21124;-72
2022/02/22 04:40:45;;;;;;;10.20;6.20;;;24.10;74.10;;;;;;1886951;75;21170;-72
2022/02/22 04:43:16;;;;;;;9.43;6.28;;;24.20;73.40;;;;;;1895465;75;21236;-73
2022/02/22 04:45:47;;;;;;;7.30;5.40;;;24.30;73.00;;;;;;1896869;75;21069;-72
2022/02/22 04:48:18;;;;;;;8.95;5.35;;;24.40;72.60;;;;;;1902727;75;21201;-71
2022/02/22 04:50:49;;;;;;;7.95;5.12;;;24.50;72.20;;;;;;1893224;75;21511;-72
2022/02/22 04:53:20;;;;;;;7.55;5.37;;;24.60;71.90;;;;;;1904757;75;21521;-72
2022/02/22 04:55:50;;;;;;;7.45;5.28;;;24.60;71.90;;;;;;1907523;75;21560;-72
2022/02/22 04:58:21;;;;;;;7.33;5.12;;;24.70;71.30;;;;;;1898383;75;21578;-72
2022/02/22 05:00:53;;;;;;;8.10;5.00;;;24.60;71.50;;;;;;1894813;75;21610;-72
2022/02/22 05:03:24;;;;;;;7.85;4.83;;;24.70;70.90;;;;;;1909224;75;21152;-73
2022/02/22 05:05:55;;;;;;;9.38;5.03;;;24.70;71.30;;;;;;1897428;75;21045;-72
2022/02/22 05:08:25;;;;;;;11.38;5.62;;;24.70;71.70;;;;;;1904626;75;21131;-73
2022/02/22 05:10:56;;;;;;;7.75;4.90;;;24.80;71.30;;;;;;1908248;75;21139;-73
2022/02/22 05:13:27;;;;;;;8.10;5.00;;;24.90;71.10;;;;;;1898774;73;21199;-72
2022/02/22 05:15:57;;;;;;;8.20;5.45;;;25.00;71.00;;;;;;1900062;75;21089;-72
2022/02/22 05:18:28;;;;;;;7.00;4.83;;;25.00;70.40;;;;;;1916455;75;21562;-71
2022/02/22 05:20:59;;;;;;;9.43;5.20;;;25.10;70.60;;;;;;1911338;73;21195;-72
2022/02/22 05:23:35;;;;;;;9.43;4.85;;;25.10;69.70;;;;;;1910230;73;21634;-72
2022/02/22 05:26:11;;;;;;;10.20;5.10;;;25.10;70.10;;;;;;1908135;75;21159;-71
2022/02/22 05:28:44;;;;;;;6.78;4.97;;;25.10;70.20;;;;;;1907444;74;21122;-72
2022/02/22 05:31:16;;;;;;;8.30;5.05;;;25.10;70.50;;;;;;1906082;75;21044;-72
2022/02/22 05:33:47;;;;;;;8.55;5.70;;;25.10;70.50;;;;;;1899648;74;21193;-69
2022/02/22 05:36:20;;;;;;;8.63;5.55;;;25.10;70.90;;;;;;1908731;73;21208;-72
2022/02/22 05:38:51;;;;;;;11.00;5.85;;;25.30;69.80;;;;;;1906761;75;21107;-72
2022/02/22 05:41:22;;;;;;;6.83;5.22;;;25.40;69.60;;;;;;1903330;73;21101;-71
2022/02/22 05:43:54;;;;;;;6.92;5.35;;;25.40;69.70;;;;;;1906374;75;21479;-71
2022/02/22 05:46:25;;;;;;;6.53;5.00;;;25.50;69.90;;;;;;1899057;73;21135;-70
2022/02/22 05:48:57;;;;;;;8.10;5.80;;;25.60;68.90;;;;;;1912772;73;21142;-70
2022/02/22 05:51:27;;;;;;;8.65;6.00;;;25.60;69.10;;;;;;1910331;75;21119;-70
2022/02/22 05:54:01;;;;;;;8.23;5.75;;;25.60;69.60;;;;;;1907933;73;21242;-70
2022/02/22 05:56:32;;;;;;;6.33;5.53;;;25.60;69.00;;;;;;1905841;73;21135;-71
2022/02/22 05:59:03;;;;;;;8.13;5.70;;;25.60;69.20;;;;;;1904354;73;21622;-71
2022/02/22 06:01:34;;;;;;;7.78;5.20;;;25.60;69.30;;;;;;1886065;75;21073;-71
2022/02/22 06:04:05;;;;;;;6.85;4.80;;;25.70;68.90;;;;;;1904667;73;21068;-70
2022/02/22 06:06:36;;;;;;;7.35;4.92;;;25.80;69.30;;;;;;1908314;73;21220;-72
2022/02/22 06:09:07;;;;;;;7.25;4.45;;;25.80;68.70;;;;;;1908015;75;21155;-71
2022/02/22 06:11:38;;;;;;;8.35;5.25;;;25.80;68.80;;;;;;1904904;75;21128;-71
2022/02/22 06:14:09;;;;;;;6.03;4.55;;;25.80;68.80;;;;;;1906312;75;21100;-72
2022/02/22 06:16:40;;;;;;;7.35;4.87;;;25.80;69.50;;;;;;1929050;73;21500;-72
2022/02/22 06:19:11;;;;;;;6.37;4.90;;;25.80;68.90;;;;;;1930882;73;21181;-72
2022/02/22 06:21:42;;;;;;;6.83;4.67;;;25.80;70.80;;;;;;1888740;75;21747;-69
2022/02/22 06:24:13;;;;;;;6.97;4.90;;;25.80;69.00;;;;;;1925938;73;21421;-72
2022/02/22 06:26:44;;;;;;;6.85;4.58;;;25.90;69.50;;;;;;1917976;74;21168;-87
2022/02/22 06:29:16;;;;;;;5.97;4.40;;;25.90;70.00;;;;;;1851671;77;21146;-88
2022/02/22 06:31:48;;;;;;;7.25;4.55;;;25.90;68.80;;;;;;1920843;74;21593;-88
2022/02/22 06:34:20;;;;;;;6.03;4.30;;;25.90;69.20;;;;;;1900200;75;21105;-87
2022/02/22 06:36:50;;;;;;;5.65;4.20;;;25.90;69.50;;;;;;1850222;77;21105;-86
2022/02/22 06:39:21;;;;;;;5.83;4.25;;;25.90;69.10;;;;;;1921834;73;21056;-87
2022/02/22 06:41:52;;;;;;;7.17;4.92;;;25.90;69.40;;;;;;1919832;73;21130;-87
2022/02/22 06:44:23;;;;;;;6.80;4.65;;;25.90;68.80;;;;;;1851991;77;21135;-87
2022/02/22 06:46:55;;;;;;;8.65;5.25;;;25.90;69.20;;;;;;1921418;74;21403;-87
2022/02/22 06:49:25;;;;;;;7.40;4.58;;;25.90;69.40;;;;;;1901109;75;21133;-89
2022/02/22 06:51:56;;;;;;;6.25;4.33;;;25.90;69.20;;;;;;1878405;76;21237;-88
2022/02/22 06:54:27;;;;;;;6.90;4.83;;;25.90;68.90;;;;;;1918109;74;21143;-89
2022/02/22 06:56:58;;;;;;;6.85;4.90;;;25.90;69.40;;;;;;1928389;74;21678;-88
2022/02/22 06:59:28;;;;;;;6.95;4.75;;;26.00;69.80;;;;;;1890369;74;21135;-72
2022/02/22 07:01:59;;;;;;;7.40;4.65;;;26.10;69.60;;;;;;1903505;74;22231;-73
2022/02/22 07:04:30;;;;;;;7.58;4.53;;;26.10;68.00;;;;;;1920294;73;21589;-74
2022/02/22 07:07:02;;;;;;;7.20;5.03;;;26.20;68.60;;;;;;1913396;73;21205;-72
2022/02/22 07:09:35;;;;;;;7.10;4.83;;;26.10;68.90;;;;;;1889641;75;21163;-71
2022/02/22 07:12:06;;;;;;;7.42;4.67;;;26.10;69.80;;;;;;1891007;75;21111;-71
2022/02/22 07:14:37;;;;;;;7.12;5.00;;;26.10;68.70;;;;;;1907047;74;21158;-72
2022/02/22 07:17:10;;;;;;;7.83;5.28;;;26.10;69.70;;;;;;1849098;77;21076;-72
2022/02/22 07:19:41;;;;;;;6.95;4.65;;;26.10;68.30;;;;;;1825199;77;21150;-72
2022/02/22 07:22:12;;;;;;;9.53;4.60;;;26.10;68.20;;;;;;1861046;77;21247;-73
2022/02/22 07:24:42;;;;;;;6.80;4.45;;;26.10;68.90;;;;;;1862985;76;21200;-72
2022/02/22 07:27:13;;;;;;;6.55;4.90;;;26.10;69.40;;;;;;1814058;78;21665;-72
2022/02/22 07:29:44;;;;;;;9.23;5.20;;;26.20;70.10;;;;;;1827026;78;21612;-72
2022/02/22 07:32:17;;;;;;;8.70;5.33;;;26.20;69.10;;;;;;1830679;78;21163;-72
2022/02/22 07:34:47;;;;;;;8.75;5.70;;;26.20;69.00;;;;;;1891487;75;21708;-72
2022/02/22 07:37:17;;;;;;;9.05;5.20;;;26.10;69.10;;;;;;1898827;75;21080;-72
2022/02/22 07:39:49;;;;;;;8.73;5.10;;;25.90;69.10;;;;;;1854501;76;21638;-73
2022/02/22 07:42:20;;;;;;;6.72;4.83;;;25.80;70.00;;;;;;1829331;77;21291;-70
2022/02/22 07:44:50;;;;;;;6.90;5.12;;;25.80;69.70;;;;;;1835206;77;21645;-71
2022/02/22 07:47:21;;;;;;;7.12;5.12;;;25.90;69.70;;;;;;1868054;75;21645;-71
2022/02/22 07:49:53;;;;;;;7.42;5.35;;;25.80;69.90;;;;;;1896392;74;21087;-71
2022/02/22 07:52:27;;;;;;;10.65;6.97;;;25.90;69.60;;;;;;1894665;74;21174;-74
2022/02/22 07:54:58;;;;;;;9.35;5.53;;;25.80;70.40;;;;;;1856684;77;22278;-70
2022/02/22 07:57:29;;;;;;;6.55;4.83;;;25.80;70.30;;;;;;1827568;77;21108;-72
2022/02/22 08:00:00;;;;;;;8.75;5.25;;;25.80;71.40;;;;;;1838620;77;21139;-72
2022/02/22 08:02:31;;;;;;;8.60;5.28;;;25.80;71.20;;;;;;1894315;74;21715;-73
2022/02/22 08:05:01;;;;;;;8.83;5.22;;;25.90;71.00;;;;;;1896841;74;21523;-73
2022/02/22 08:07:36;;;;;;;6.78;4.78;;;25.90;70.80;;;;;;1859433;77;21174;-71
2022/02/22 08:10:07;;;;;;;7.60;4.95;;;26.00;70.90;;;;;;1837200;77;21229;-72
2022/02/22 08:12:38;;;;;;;7.87;5.17;;;25.90;70.50;;;;;;1840611;77;21198;-72
2022/02/22 08:15:09;;;;;;;9.33;5.62;;;25.90;70.50;;;;;;1840428;76;21706;-71
2022/02/22 08:17:41;;;;;;;7.33;5.03;;;25.90;70.40;;;;;;1887878;75;21189;-72
2022/02/22 08:20:12;;;;;;;11.97;5.40;;;25.80;70.70;;;;;;1896427;75;21073;-72
2022/02/22 08:22:43;;;;;;;7.65;5.70;;;25.60;71.10;;;;;;1929758;73;21091;-73
2022/02/22 08:25:14;;;;;;;8.03;5.20;;;25.60;71.30;;;;;;1925235;74;21135;-73
2022/02/22 08:27:45;;;;;;;7.45;5.12;;;25.50;71.20;;;;;;1916635;73;21577;-72
2022/02/22 08:30:15;;;;;;;7.22;5.50;;;25.60;71.80;;;;;;1884162;74;22484;-70
2022/02/22 08:32:46;;;;;;;7.55;5.03;;;25.60;72.50;;;;;;1920904;73;21147;-71
2022/02/22 08:35:17;;;;;;;8.33;5.60;;;25.70;71.70;;;;;;1922655;73;21109;-71
2022/02/22 08:37:50;;;;;;;7.17;5.35;;;25.70;70.90;;;;;;1937564;73;21057;-72
2022/02/22 08:40:20;;;;;;;9.40;5.60;;;25.70;71.60;;;;;;1874942;75;21995;-70
2022/02/22 08:42:52;;;;;;;7.47;5.58;;;25.60;71.60;;;;;;1920606;73;21575;-70
2022/02/22 08:45:26;;;;;;;6.75;5.22;;;25.60;71.40;;;;;;1928617;73;21103;-70
2022/02/22 08:47:57;;;;;;;8.25;5.55;;;25.70;71.00;;;;;;1901974;74;21241;-70
2022/02/22 08:50:28;;;;;;;9.10;5.55;;;25.60;71.30;;;;;;1924048;73;21149;-71
2022/02/22 08:52:59;;;;;;;8.30;5.75;;;25.60;72.00;;;;;;1932531;73;21111;-71
2022/02/22 08:55:30;;;;;;;8.88;6.05;;;25.60;71.70;;;;;;1888927;74;21178;-71
2022/02/22 08:58:01;;;;;;;8.80;6.03;;;25.60;71.70;;;;;;1925446;73;21617;-72
2022/02/22 09:00:32;;;;;;;9.03;6.20;;;25.70;72.00;;;;;;1934746;73;21664;-72
2022/02/22 09:03:04;;;;;;;8.78;5.92;;;25.70;71.60;;;;;;1929140;73;21249;-73
2022/02/22 09:05:36;;;;;;;7.55;5.92;;;25.70;71.50;;;;;;1889939;75;21657;-73
2022/02/22 09:08:08;;;;;;;12.07;7.22;;;25.70;71.60;;;;;;1901020;73;21201;-72
2022/02/22 09:10:40;;;;;;;7.75;6.12;;;25.70;71.60;;;;;;1928545;73;21094;-72
2022/02/22 09:13:11;;;;;;;10.45;6.50;;;25.60;71.80;;;;;;1927044;73;21179;-72
2022/02/22 09:15:43;;;;;;;8.30;6.60;;;25.60;72.00;;;;;;1928660;73;21174;-71
2022/02/22 09:18:14;;;;;;;8.40;6.00;;;25.60;72.60;;;;;;1903387;75;21116;-72
2022/02/22 09:20:45;;;;;;;9.70;5.87;;;25.60;72.30;;;;;;1928783;73;21138;-73
2022/02/22 09:23:16;;;;;;;8.30;6.08;;;25.60;72.40;;;;;;1927249;73;21186;-73
2022/02/22 09:25:48;;;;;;;9.25;6.33;;;25.60;72.00;;;;;;1930179;73;21149;-72
2022/02/22 09:28:19;;;;;;;7.58;6.20;;;25.70;72.00;;;;;;1928788;73;21143;-71
2022/02/22 09:30:50;;;;;;;9.08;6.42;;;25.60;72.20;;;;;;1935319;73;21514;-72
2022/02/22 09:33:21;;;;;;;8.00;5.90;;;25.60;72.10;;;;;;1894224;74;21135;-72
2022/02/22 09:35:53;;;;;;;8.83;6.67;;;25.60;72.00;;;;;;1887104;75;21091;-72
2022/02/22 09:38:24;;;;;;;8.50;6.72;;;25.60;72.10;;;;;;1928785;73;21150;-72
2022/02/22 09:40:57;;;;;;;12.03;6.65;;;25.60;72.20;;;;;;1913946;74;21602;-74
2022/02/22 09:43:27;;;;;;;9.08;6.80;;;25.50;72.70;;;;;;1867707;75;21155;-72
2022/02/22 09:45:58;;;;;;;9.70;6.83;;;25.50;72.70;;;;;;1928462;74;21158;-70
2022/02/22 09:48:29;;;;;;;9.48;7.08;;;25.50;73.30;;;;;;1923722;74;21190;-81
2022/02/22 09:51:00;;;;;;;8.68;6.40;;;25.50;72.80;;;;;;1918148;73;21138;-83
2022/02/22 09:53:32;;;;;;;10.00;6.90;;;25.50;72.80;;;;;;1857929;77;21193;-83
2022/02/22 09:56:03;;;;;;;10.53;6.72;;;25.50;72.90;;;;;;1917856;74;21800;-83
2022/02/22 09:58:33;;;;;;;8.90;6.62;;;25.40;73.50;;;;;;1907633;74;21186;-83
2022/02/22 10:01:05;;;;;;;8.83;6.45;;;25.40;73.10;;;;;;1887167;76;21121;-84
2022/02/22 10:03:36;;;;;;;10.80;7.22;;;25.40;73.30;;;;;;1883161;76;21551;-83
2022/02/22 10:06:08;;;;;;;10.35;6.65;;;25.40;73.40;;;;;;1925956;73;21103;-83
2022/02/22 10:08:40;;;;;;;11.03;6.45;;;25.30;74.60;;;;;;1942375;73;21119;-83
2022/02/22 10:11:11;;;;;;;9.85;6.65;;;25.30;73.40;;;;;;1903995;74;21136;-83
2022/02/22 10:13:45;;;;;;;10.53;6.50;;;25.30;73.40;;;;;;1889427;75;21213;-84
2022/02/22 10:16:17;;;;;;;10.58;6.78;;;25.20;73.70;;;;;;1917323;74;21151;-84
2022/02/22 10:18:52;;;;;;;14.45;6.58;;;25.20;73.80;;;;;;1933219;74;21137;-85
2022/02/22 10:21:24;;;;;;;9.65;6.20;;;25.20;74.20;;;;;;1906097;74;21186;-87
2022/02/22 10:23:55;;;;;;;8.00;6.60;;;25.20;74.30;;;;;;1919920;74;21087;-84
2022/02/22 10:26:28;;;;;;;10.63;7.28;;;25.20;74.30;;;;;;1911781;74;21161;-83
2022/02/22 10:28:59;;;;;;;11.88;6.70;;;25.10;74.50;;;;;;1928795;74;21066;-83
2022/02/22 10:31:32;;;;;;;10.40;6.80;;;25.10;74.60;;;;;;1931005;74;21175;-84
2022/02/22 10:34:04;;;;;;;7.90;6.58;;;25.10;74.90;;;;;;1921465;74;21569;-84
2022/02/22 10:36:39;;;;;;;10.55;6.85;;;25.10;74.90;;;;;;1923742;74;21184;-84
2022/02/22 10:39:12;;;;;;;8.08;6.60;;;25.00;74.80;;;;;;1883290;75;21060;-85
2022/02/22 10:41:49;;;;;;;11.75;7.22;;;25.00;74.90;;;;;;1901696;74;21106;-84
2022/02/22 10:44:20;;;;;;;8.33;6.37;;;25.00;75.10;;;;;;1921295;74;21134;-85
2022/02/22 10:46:51;;;;;;;11.15;7.95;;;25.00;75.50;;;;;;1923340;74;21264;-85
2022/02/22 10:49:24;;;;;;;10.23;7.40;;;24.90;75.40;;;;;;1932610;74;21123;-84
2022/02/22 10:51:56;;;;;;;12.63;7.05;;;24.90;75.50;;;;;;1930423;74;21143;-85
2022/02/22 10:54:27;;;;;;;11.40;8.03;;;24.90;75.40;;;;;;1916852;74;21198;-84
2022/02/22 10:56:59;;;;;;;10.18;7.83;;;24.90;75.50;;;;;;1920411;74;21667;-84
2022/02/22 10:59:31;;;;;;;12.20;7.35;;;24.90;75.80;;;;;;1928093;73;21147;-85
2022/02/22 11:02:03;;;;;;;10.80;7.12;;;24.90;75.70;;;;;;1873819;76;21131;-84
2022/02/22 11:04:35;;;;;;;12.03;8.05;;;24.90;75.70;;;;;;1901300;74;21701;-84
2022/02/22 11:07:07;;;;;;;15.32;8.95;;;24.80;75.80;;;;;;1926085;74;21261;-85
2022/02/22 11:09:40;;;;;;;17.20;8.40;;;24.80;76.20;;;;;;1933346;74;21163;-84
2022/02/22 11:12:13;;;;;;;10.18;6.72;;;24.80;76.40;;;;;;1930453;74;21091;-85
2022/02/22 11:14:44;;;;;;;13.60;7.47;;;24.80;76.40;;;;;;1914372;74;21255;-85
2022/02/22 11:17:18;;;;;;;9.30;7.80;;;24.80;76.70;;;;;;1872800;75;21669;-85
2022/02/22 11:19:52;;;;;;;11.40;7.90;;;24.70;76.80;;;;;;1900853;75;21535;-84
2022/02/22 11:22:25;;;;;;;25.15;8.83;;;24.70;76.90;;;;;;1882102;75;21096;-85
2022/02/22 11:24:58;;;;;;;15.95;7.75;;;24.70;76.90;;;;;;1912770;75;21159;-84
2022/02/22 11:27:32;;;;;;;33.53;9.08;;;24.70;77.00;;;;;;1906304;75;21139;-85
2022/02/22 11:30:07;;;;;;;14.75;7.67;;;24.60;77.20;;;;;;1913563;75;21179;-85
2022/02/22 11:32:41;;;;;;;13.20;8.30;;;24.60;77.10;;;;;;1906144;75;21119;-85
2022/02/22 11:35:14;;;;;;;22.55;8.35;;;24.60;76.90;;;;;;1901920;75;21886;-84
2022/02/22 11:37:46;;;;;;;50.50;12.93;;;24.50;77.30;;;;;;1901047;75;21184;-84
2022/02/22 11:40:19;;;;;;;49.80;11.38;;;24.50;77.60;;;;;;1905336;75;21185;-85
2022/02/22 11:42:50;;;;;;;32.13;10.08;;;24.50;77.70;;;;;;1917317;75;21133;-85
2022/02/22 11:45:23;;;;;;;90.55;15.55;;;24.50;77.80;;;;;;1903903;73;21076;-85
2022/02/22 11:47:56;;;;;;;119.77;17.25;;;24.40;78.10;;;;;;1899113;75;21181;-84
2022/02/22 11:50:27;;;;;;;197.72;24.55;;;24.40;78.20;;;;;;1902158;75;21144;-86
2022/02/22 11:52:59;;;;;;;225.47;25.32;;;24.40;78.50;;;;;;1915233;75;21147;-84
2022/02/22 11:55:32;;;;;;;58.20;12.13;;;24.40;78.60;;;;;;1902029;75;21115;-84
2022/02/22 11:58:05;;;;;;;77.22;15.10;;;24.40;78.70;;;;;;1902413;75;21193;-84
2022/02/22 12:00:38;;;;;;;47.33;11.50;;;24.30;78.90;;;;;;1893332;75;21135;-84
2022/02/22 12:03:11;;;;;;;23.92;10.13;;;24.30;79.00;;;;;;1893704;75;21164;-85
2022/02/22 12:05:44;;;;;;;23.92;10.13;;;24.30;79.00;;;;;;1918450;75;21193;-84
2022/02/22 12:08:19;;;;;;;17.40;9.13;;;24.30;79.20;;;;;;1905651;72;21174;-86
2022/02/22 12:10:55;;;;;;;17.10;9.45;;;24.20;79.30;;;;;;1920023;73;21437;-86
2022/02/22 12:13:27;;;;;;;19.40;9.68;;;24.20;79.40;;;;;;1910551;73;21125;-86
2022/02/22 12:15:58;;;;;;;25.32;11.73;;;24.20;79.50;;;;;;1925263;73;21127;-84
2022/02/22 12:18:28;;;;;;;18.67;11.65;;;24.20;80.00;;;;;;1922295;74;21155;-84
2022/02/22 12:20:59;;;;;;;23.73;11.20;;;24.10;80.30;;;;;;1906243;74;21076;-84
2022/02/22 12:23:30;;;;;;;15.38;11.22;;;24.10;80.20;;;;;;1863241;75;21633;-84
2022/02/22 12:26:04;;;;;;;18.42;11.05;;;24.10;80.20;;;;;;1892127;75;21059;-84
2022/02/22 12:28:37;;;;;;;27.35;12.98;;;24.10;80.40;;;;;;1897869;74;21128;-85
2022/02/22 12:31:09;;;;;;;18.92;12.63;;;24.00;80.60;;;;;;1900142;74;21138;-84
2022/02/22 12:33:40;;;;;;;21.45;12.28;;;24.10;81.10;;;;;;1930022;74;21601;-86
2022/02/22 12:36:13;;;;;;;19.87;12.85;;;24.00;81.20;;;;;;1926465;74;21671;-84
2022/02/22 12:38:44;;;;;;;21.82;12.25;;;24.00;81.30;;;;;;1893232;75;21523;-84
2022/02/22 12:41:17;;;;;;;21.20;13.15;;;24.00;81.20;;;;;;1910124;74;21220;-88
2022/02/22 12:43:50;;;;;;;27.65;15.90;;;24.00;81.20;;;;;;1930761;74;21192;-89
2022/02/22 12:46:23;;;;;;;25.52;15.28;;;23.90;81.50;;;;;;1862869;76;21096;-89
2022/02/22 12:49:14;;;;;;;25.55;15.25;;;23.90;82.00;;;;;;1890488;75;21170;-88
2022/02/22 12:51:48;;;;;;;26.15;15.58;;;23.90;81.90;;;;;;1863742;75;21103;-88
2022/02/22 12:54:28;;;;;;;26.17;14.85;;;23.90;82.00;;;;;;1893925;75;21170;-90
2022/02/22 12:57:18;;;;;;;26.15;15.85;;;23.90;82.10;;;;;;1919469;74;21634;-89
2022/02/22 12:59:41;;;;;;;22.93;14.65;;;23.80;82.10;;;;;;1897562;74;21194;-86
2022/02/22 13:02:16;;;;;;;26.82;15.25;;;23.80;82.20;;;;;;1927104;74;21248;-88